sensor_id;sensor_type;location;lat;lon;timestamp;temperature;humidity
23347;DHT22;36852;45.466;11.066;2022-12-24T00:01:40;10.50;99.90
23347;DHT22;36852;45.466;11.066;2022-12-24T00:04:08;10.50;99.90
23347;DHT22;36852;45.466;11.066;2022-12-24T00:06:36;10.50;99.90
23347;DHT22;36852;45.466;11.066;2022-12-24T00:09:03;10.50;99.90
23347;DHT22;36852;45.466;11.066;2022-12-24T00:11:32;10.50;99.90
23347;DHT22;36852;45.466;11.066;2022-12-24T00:14:00;10.50;99.90
23347;DHT22;36852;45.466;11.066;2022-12-24T00:16:28;10.50;99.90
23347;DHT22;36852;45.466;11.066;2022-12-24T00:18:56;10.50;99.90
23347;DHT22;36852;45.466;11.066;2022-12-24T00:21:24;10.50;99.90
23347;DHT22;36852;45.466;11.066;2022-12-24T00:23:53;10.50;99.90
23347;DHT22;36852;45.466;11.066;2022-12-24T00:26:21;10.50;99.90
23347;DHT22;36852;45.466;11.066;2022-12-24T00:28:49;10.40;99.90
23347;DHT22;36852;45.466;11.066;2022-12-24T00:31:17;10.40;99.90
23347;DHT22;36852;45.466;11.066;2022-12-24T00:33:45;10.50;99.90
23347;DHT22;36852;45.466;11.066;2022-12-24T00:36:14;10.40;99.90
23347;DHT22;36852;45.466;11.066;2022-12-24T00:38:42;10.40;99.90
23347;DHT22;36852;45.466;11.066;2022-12-24T00:41:11;10.40;99.90
23347;DHT22;36852;45.466;11.066;2022-12-24T00:43:59;10.40;99.90
23347;DHT22;36852;45.466;11.066;2022-12-24T00:46:25;10.40;99.90
23347;DHT22;36852;45.466;11.066;2022-12-24T00:48:53;10.40;99.90
23347;DHT22;36852;45.466;11.066;2022-12-24T00:51:22;10.40;99.90
23347;DHT22;36852;45.466;11.066;2022-12-24T00:53:51;10.40;99.90
23347;DHT22;36852;45.466;11.066;2022-12-24T00:56:20;10.40;99.90
23347;DHT22;36852;45.466;11.066;2022-12-24T00:58:48;10.40;99.90
23347;DHT22;36852;45.466;11.066;2022-12-24T01:01:16;10.40;99.90
23347;DHT22;36852;45.466;11.066;2022-12-24T01:03:44;10.40;99.90
23347;DHT22;36852;45.466;11.066;2022-12-24T01:06:16;10.40;99.90
23347;DHT22;36852;45.466;11.066;2022-12-24T01:08:44;10.40;99.90
23347;DHT22;36852;45.466;11.066;2022-12-24T01:11:12;10.40;99.90
23347;DHT22;36852;45.466;11.066;2022-12-24T01:13:40;10.40;99.90
23347;DHT22;36852;45.466;11.066;2022-12-24T01:16:17;10.40;99.90
23347;DHT22;36852;45.466;11.066;2022-12-24T01:18:45;10.40;99.90
23347;DHT22;36852;45.466;11.066;2022-12-24T01:21:13;10.40;99.90
23347;DHT22;36852;45.466;11.066;2022-12-24T01:23:43;10.40;99.90
23347;DHT22;36852;45.466;11.066;2022-12-24T01:26:31;10.40;99.90
23347;DHT22;36852;45.466;11.066;2022-12-24T01:28:59;10.40;99.90
23347;DHT22;36852;45.466;11.066;2022-12-24T01:31:33;10.40;99.90
23347;DHT22;36852;45.466;11.066;2022-12-24T01:34:01;10.40;99.90
23347;DHT22;36852;45.466;11.066;2022-12-24T01:36:29;10.40;99.90
23347;DHT22;36852;45.466;11.066;2022-12-24T01:38:57;10.40;99.90
23347;DHT22;36852;45.466;11.066;2022-12-24T01:41:25;10.40;99.90
23347;DHT22;36852;45.466;11.066;2022-12-24T01:46:50;10.40;99.90
23347;DHT22;36852;45.466;11.066;2022-12-24T01:49:18;10.30;99.90
23347;DHT22;36852;45.466;11.066;2022-12-24T01:51:57;10.20;99.90
23347;DHT22;36852;45.466;11.066;2022-12-24T01:54:27;10.10;99.90
23347;DHT22;36852;45.466;11.066;2022-12-24T01:57:08;10.10;99.90
23347;DHT22;36852;45.466;11.066;2022-12-24T01:59:37;10.10;99.90
23347;DHT22;36852;45.466;11.066;2022-12-24T02:02:07;10.20;99.90
23347;DHT22;36852;45.466;11.066;2022-12-24T02:05:02;10.10;99.90
23347;DHT22;36852;45.466;11.066;2022-12-24T02:07:30;10.20;99.90
23347;DHT22;36852;45.466;11.066;2022-12-24T02:10:00;10.20;99.90
23347;DHT22;36852;45.466;11.066;2022-12-24T02:12:30;10.20;99.90
23347;DHT22;36852;45.466;11.066;2022-12-24T02:14:59;10.20;99.90
23347;DHT22;36852;45.466;11.066;2022-12-24T02:17:41;10.20;99.90
23347;DHT22;36852;45.466;11.066;2022-12-24T02:29:18;10.30;99.90
23347;DHT22;36852;45.466;11.066;2022-12-24T02:31:50;10.30;99.90
23347;DHT22;36852;45.466;11.066;2022-12-24T02:34:39;10.30;99.90
23347;DHT22;36852;45.466;11.066;2022-12-24T02:37:00;10.30;99.90
23347;DHT22;36852;45.466;11.066;2022-12-24T02:42:14;10.30;99.90
23347;DHT22;36852;45.466;11.066;2022-12-24T02:45:00;10.30;99.90
23347;DHT22;36852;45.466;11.066;2022-12-24T02:47:31;10.30;99.90
23347;DHT22;36852;45.466;11.066;2022-12-24T02:50:02;10.30;99.90
23347;DHT22;36852;45.466;11.066;2022-12-24T02:52:39;10.30;99.90
23347;DHT22;36852;45.466;11.066;2022-12-24T02:55:30;10.30;99.90
23347;DHT22;36852;45.466;11.066;2022-12-24T03:03:37;10.30;99.90
23347;DHT22;36852;45.466;11.066;2022-12-24T03:08:53;10.30;99.90
23347;DHT22;36852;45.466;11.066;2022-12-24T03:11:18;10.30;99.90
23347;DHT22;36852;45.466;11.066;2022-12-24T03:13:47;10.30;99.90
23347;DHT22;36852;45.466;11.066;2022-12-24T03:16:20;10.20;99.90
23347;DHT22;36852;45.466;11.066;2022-12-24T03:18:49;10.30;99.90
23347;DHT22;36852;45.466;11.066;2022-12-24T03:21:32;10.30;99.90
23347;DHT22;36852;45.466;11.066;2022-12-24T03:24:01;10.30;99.90
23347;DHT22;36852;45.466;11.066;2022-12-24T03:26:31;10.30;99.90
23347;DHT22;36852;45.466;11.066;2022-12-24T03:29:03;10.30;99.90
23347;DHT22;36852;45.466;11.066;2022-12-24T03:31:46;10.20;99.90
23347;DHT22;36852;45.466;11.066;2022-12-24T03:34:13;10.30;99.90
23347;DHT22;36852;45.466;11.066;2022-12-24T03:36:41;10.30;99.90
23347;DHT22;36852;45.466;11.066;2022-12-24T03:39:10;10.30;99.90
23347;DHT22;36852;45.466;11.066;2022-12-24T03:41:38;10.30;99.90
23347;DHT22;36852;45.466;11.066;2022-12-24T03:44:06;10.30;99.90
23347;DHT22;36852;45.466;11.066;2022-12-24T03:46:35;10.40;99.90
23347;DHT22;36852;45.466;11.066;2022-12-24T03:49:03;10.30;99.90
23347;DHT22;36852;45.466;11.066;2022-12-24T03:51:31;10.40;99.90
23347;DHT22;36852;45.466;11.066;2022-12-24T03:54:00;10.40;99.90
23347;DHT22;36852;45.466;11.066;2022-12-24T03:56:28;10.30;99.90
23347;DHT22;36852;45.466;11.066;2022-12-24T03:58:55;10.30;99.90
23347;DHT22;36852;45.466;11.066;2022-12-24T04:01:24;10.30;99.90
23347;DHT22;36852;45.466;11.066;2022-12-24T04:03:52;10.40;99.90
23347;DHT22;36852;45.466;11.066;2022-12-24T04:06:39;10.30;99.90
23347;DHT22;36852;45.466;11.066;2022-12-24T04:09:08;10.30;99.90
23347;DHT22;36852;45.466;11.066;2022-12-24T04:11:36;10.30;99.90
23347;DHT22;36852;45.466;11.066;2022-12-24T04:14:04;10.30;99.90
23347;DHT22;36852;45.466;11.066;2022-12-24T04:16:32;10.40;99.90
23347;DHT22;36852;45.466;11.066;2022-12-24T04:18:59;10.30;99.90
23347;DHT22;36852;45.466;11.066;2022-12-24T04:21:27;10.30;99.90
23347;DHT22;36852;45.466;11.066;2022-12-24T04:23:56;10.30;99.90
23347;DHT22;36852;45.466;11.066;2022-12-24T04:26:24;10.30;99.90
23347;DHT22;36852;45.466;11.066;2022-12-24T04:28:52;10.30;99.90
23347;DHT22;36852;45.466;11.066;2022-12-24T04:31:20;10.30;99.90
23347;DHT22;36852;45.466;11.066;2022-12-24T04:33:50;10.30;99.90
23347;DHT22;36852;45.466;11.066;2022-12-24T04:36:28;10.40;99.90
23347;DHT22;36852;45.466;11.066;2022-12-24T04:38:56;10.40;99.90
23347;DHT22;36852;45.466;11.066;2022-12-24T04:41:23;10.40;99.90
23347;DHT22;36852;45.466;11.066;2022-12-24T04:43:54;10.40;99.90
23347;DHT22;36852;45.466;11.066;2022-12-24T04:46:25;10.30;99.90
23347;DHT22;36852;45.466;11.066;2022-12-24T04:48:53;10.30;99.90
23347;DHT22;36852;45.466;11.066;2022-12-24T04:51:22;10.30;99.90
23347;DHT22;36852;45.466;11.066;2022-12-24T04:53:50;10.30;99.90
23347;DHT22;36852;45.466;11.066;2022-12-24T04:56:25;10.30;99.90
23347;DHT22;36852;45.466;11.066;2022-12-24T04:58:53;10.30;99.90
23347;DHT22;36852;45.466;11.066;2022-12-24T05:01:24;10.30;99.90
23347;DHT22;36852;45.466;11.066;2022-12-24T05:03:52;10.30;99.90
23347;DHT22;36852;45.466;11.066;2022-12-24T05:06:23;10.40;99.90
23347;DHT22;36852;45.466;11.066;2022-12-24T05:08:55;10.40;99.90
23347;DHT22;36852;45.466;11.066;2022-12-24T05:11:24;10.40;99.90
23347;DHT22;36852;45.466;11.066;2022-12-24T05:13:52;10.40;99.90
23347;DHT22;36852;45.466;11.066;2022-12-24T05:16:22;10.40;99.90
23347;DHT22;36852;45.466;11.066;2022-12-24T05:18:50;10.40;99.90
23347;DHT22;36852;45.466;11.066;2022-12-24T05:21:21;10.40;99.90
23347;DHT22;36852;45.466;11.066;2022-12-24T05:23:50;10.40;99.90
23347;DHT22;36852;45.466;11.066;2022-12-24T05:29:12;10.30;99.90
23347;DHT22;36852;45.466;11.066;2022-12-24T05:34:24;10.20;99.90
23347;DHT22;36852;45.466;11.066;2022-12-24T05:36:52;10.20;99.90
23347;DHT22;36852;45.466;11.066;2022-12-24T05:39:27;10.20;99.90
23347;DHT22;36852;45.466;11.066;2022-12-24T05:41:54;10.20;99.90
23347;DHT22;36852;45.466;11.066;2022-12-24T05:44:23;10.20;99.90
23347;DHT22;36852;45.466;11.066;2022-12-24T05:46:52;10.20;99.90
23347;DHT22;36852;45.466;11.066;2022-12-24T05:49:23;10.20;99.90
23347;DHT22;36852;45.466;11.066;2022-12-24T05:51:51;10.20;99.90
23347;DHT22;36852;45.466;11.066;2022-12-24T05:54:19;10.20;99.90
23347;DHT22;36852;45.466;11.066;2022-12-24T05:56:47;10.20;99.90
23347;DHT22;36852;45.466;11.066;2022-12-24T05:59:15;10.20;99.90
23347;DHT22;36852;45.466;11.066;2022-12-24T06:01:42;10.10;99.90
23347;DHT22;36852;45.466;11.066;2022-12-24T06:04:12;10.10;99.90
23347;DHT22;36852;45.466;11.066;2022-12-24T06:06:40;10.00;99.90
23347;DHT22;36852;45.466;11.066;2022-12-24T06:09:08;10.00;99.90
23347;DHT22;36852;45.466;11.066;2022-12-24T06:11:36;10.00;99.90
23347;DHT22;36852;45.466;11.066;2022-12-24T06:14:04;10.00;99.90
23347;DHT22;36852;45.466;11.066;2022-12-24T06:16:33;10.00;99.90
23347;DHT22;36852;45.466;11.066;2022-12-24T06:19:01;10.00;99.90
23347;DHT22;36852;45.466;11.066;2022-12-24T06:21:29;10.00;99.90
23347;DHT22;36852;45.466;11.066;2022-12-24T06:23:56;10.00;99.90
23347;DHT22;36852;45.466;11.066;2022-12-24T06:26:24;10.00;99.90
23347;DHT22;36852;45.466;11.066;2022-12-24T06:28:53;10.00;99.90
23347;DHT22;36852;45.466;11.066;2022-12-24T06:31:22;10.00;99.90
23347;DHT22;36852;45.466;11.066;2022-12-24T06:33:50;10.00;99.90
23347;DHT22;36852;45.466;11.066;2022-12-24T06:36:21;10.00;99.90
23347;DHT22;36852;45.466;11.066;2022-12-24T06:38:50;10.00;99.90
23347;DHT22;36852;45.466;11.066;2022-12-24T06:41:22;10.00;99.90
23347;DHT22;36852;45.466;11.066;2022-12-24T06:43:51;10.00;99.90
23347;DHT22;36852;45.466;11.066;2022-12-24T06:46:20;10.10;99.90
23347;DHT22;36852;45.466;11.066;2022-12-24T06:48:48;10.00;99.90
23347;DHT22;36852;45.466;11.066;2022-12-24T06:54:05;10.00;99.90
23347;DHT22;36852;45.466;11.066;2022-12-24T06:56:33;10.10;99.90
23347;DHT22;36852;45.466;11.066;2022-12-24T06:59:01;10.10;99.90
23347;DHT22;36852;45.466;11.066;2022-12-24T07:01:31;10.00;99.90
23347;DHT22;36852;45.466;11.066;2022-12-24T07:03:59;10.00;99.90
23347;DHT22;36852;45.466;11.066;2022-12-24T07:06:28;9.90;99.90
23347;DHT22;36852;45.466;11.066;2022-12-24T07:08:56;9.90;99.90
23347;DHT22;36852;45.466;11.066;2022-12-24T07:11:27;9.90;99.90
23347;DHT22;36852;45.466;11.066;2022-12-24T07:13:55;9.90;99.90
23347;DHT22;36852;45.466;11.066;2022-12-24T07:16:22;9.90;99.90
23347;DHT22;36852;45.466;11.066;2022-12-24T07:18:51;9.90;99.90
23347;DHT22;36852;45.466;11.066;2022-12-24T07:21:19;9.90;99.90
23347;DHT22;36852;45.466;11.066;2022-12-24T07:23:47;9.90;99.90
23347;DHT22;36852;45.466;11.066;2022-12-24T07:26:18;9.90;99.90
23347;DHT22;36852;45.466;11.066;2022-12-24T07:28:46;10.00;99.90
23347;DHT22;36852;45.466;11.066;2022-12-24T07:31:14;10.00;99.90
23347;DHT22;36852;45.466;11.066;2022-12-24T07:33:42;10.00;99.90
23347;DHT22;36852;45.466;11.066;2022-12-24T07:36:17;10.00;99.90
23347;DHT22;36852;45.466;11.066;2022-12-24T07:38:45;10.00;99.90
23347;DHT22;36852;45.466;11.066;2022-12-24T07:41:14;10.10;99.90
23347;DHT22;36852;45.466;11.066;2022-12-24T07:43:42;10.00;99.90
23347;DHT22;36852;45.466;11.066;2022-12-24T07:46:09;10.00;99.90
23347;DHT22;36852;45.466;11.066;2022-12-24T07:48:37;10.00;99.90
23347;DHT22;36852;45.466;11.066;2022-12-24T07:51:05;10.00;99.90
23347;DHT22;36852;45.466;11.066;2022-12-24T07:53:33;10.10;99.90
23347;DHT22;36852;45.466;11.066;2022-12-24T07:56:02;10.10;99.90
23347;DHT22;36852;45.466;11.066;2022-12-24T07:58:31;10.10;99.90
23347;DHT22;36852;45.466;11.066;2022-12-24T08:00:59;10.10;99.90
23347;DHT22;36852;45.466;11.066;2022-12-24T08:03:27;10.00;99.90
23347;DHT22;36852;45.466;11.066;2022-12-24T08:05:55;10.00;99.90
23347;DHT22;36852;45.466;11.066;2022-12-24T08:08:24;10.00;99.90
23347;DHT22;36852;45.466;11.066;2022-12-24T08:10:52;10.00;99.90
23347;DHT22;36852;45.466;11.066;2022-12-24T08:13:20;10.00;99.90
23347;DHT22;36852;45.466;11.066;2022-12-24T08:15:49;10.10;99.90
23347;DHT22;36852;45.466;11.066;2022-12-24T08:18:17;10.10;99.90
23347;DHT22;36852;45.466;11.066;2022-12-24T08:20:45;10.10;99.90
23347;DHT22;36852;45.466;11.066;2022-12-24T08:23:13;10.20;99.90
23347;DHT22;36852;45.466;11.066;2022-12-24T08:25:43;10.20;99.90
23347;DHT22;36852;45.466;11.066;2022-12-24T08:28:13;10.20;99.90
23347;DHT22;36852;45.466;11.066;2022-12-24T08:30:42;10.30;99.90
23347;DHT22;36852;45.466;11.066;2022-12-24T08:33:10;10.30;99.90
23347;DHT22;36852;45.466;11.066;2022-12-24T08:35:38;10.30;99.90
23347;DHT22;36852;45.466;11.066;2022-12-24T08:38:05;10.30;99.90
23347;DHT22;36852;45.466;11.066;2022-12-24T08:40:36;10.30;99.90
23347;DHT22;36852;45.466;11.066;2022-12-24T08:43:04;10.30;99.90
23347;DHT22;36852;45.466;11.066;2022-12-24T08:45:32;10.30;99.90
23347;DHT22;36852;45.466;11.066;2022-12-24T08:48:01;10.30;99.90
23347;DHT22;36852;45.466;11.066;2022-12-24T08:50:29;10.30;99.90
23347;DHT22;36852;45.466;11.066;2022-12-24T08:52:57;10.30;99.90
23347;DHT22;36852;45.466;11.066;2022-12-24T08:55:28;10.40;99.90
23347;DHT22;36852;45.466;11.066;2022-12-24T08:57:56;10.40;99.90
23347;DHT22;36852;45.466;11.066;2022-12-24T09:00:24;10.40;99.90
23347;DHT22;36852;45.466;11.066;2022-12-24T09:02:52;10.50;99.90
23347;DHT22;36852;45.466;11.066;2022-12-24T09:05:20;10.50;99.90
23347;DHT22;36852;45.466;11.066;2022-12-24T09:07:49;10.50;99.90
23347;DHT22;36852;45.466;11.066;2022-12-24T09:12:59;10.50;99.90
23347;DHT22;36852;45.466;11.066;2022-12-24T09:15:27;10.50;99.90
23347;DHT22;36852;45.466;11.066;2022-12-24T09:17:55;10.50;99.90
23347;DHT22;36852;45.466;11.066;2022-12-24T09:20:29;10.60;99.90
23347;DHT22;36852;45.466;11.066;2022-12-24T09:22:56;10.60;99.90
23347;DHT22;36852;45.466;11.066;2022-12-24T09:25:24;10.60;99.90
23347;DHT22;36852;45.466;11.066;2022-12-24T09:27:52;10.60;99.90
23347;DHT22;36852;45.466;11.066;2022-12-24T09:30:19;10.70;99.90
23347;DHT22;36852;45.466;11.066;2022-12-24T09:32:50;10.70;99.90
23347;DHT22;36852;45.466;11.066;2022-12-24T09:35:18;10.70;99.90
23347;DHT22;36852;45.466;11.066;2022-12-24T09:37:48;10.80;99.90
23347;DHT22;36852;45.466;11.066;2022-12-24T09:40:24;10.70;99.90
23347;DHT22;36852;45.466;11.066;2022-12-24T09:42:53;10.80;99.90
23347;DHT22;36852;45.466;11.066;2022-12-24T09:45:30;10.80;99.90
23347;DHT22;36852;45.466;11.066;2022-12-24T09:48:07;10.70;99.90
23347;DHT22;36852;45.466;11.066;2022-12-24T09:53:11;10.70;99.90
23347;DHT22;36852;45.466;11.066;2022-12-24T09:55:45;10.70;99.90
23347;DHT22;36852;45.466;11.066;2022-12-24T09:58:18;10.70;99.90
23347;DHT22;36852;45.466;11.066;2022-12-24T10:00:45;10.80;99.90
23347;DHT22;36852;45.466;11.066;2022-12-24T10:03:16;10.80;99.90
23347;DHT22;36852;45.466;11.066;2022-12-24T10:17:08;11.00;99.90
23347;DHT22;36852;45.466;11.066;2022-12-24T10:19:58;11.10;99.90
23347;DHT22;36852;45.466;11.066;2022-12-24T10:22:28;11.10;99.90
23347;DHT22;36852;45.466;11.066;2022-12-24T10:25:08;11.20;99.90
23347;DHT22;36852;45.466;11.066;2022-12-24T10:27:37;11.20;99.90
23347;DHT22;36852;45.466;11.066;2022-12-24T10:30:19;11.10;99.90
23347;DHT22;36852;45.466;11.066;2022-12-24T10:32:52;11.20;99.90
23347;DHT22;36852;45.466;11.066;2022-12-24T10:35:28;11.20;99.90
23347;DHT22;36852;45.466;11.066;2022-12-24T10:37:56;11.20;99.90
23347;DHT22;36852;45.466;11.066;2022-12-24T10:43:14;11.20;99.90
23347;DHT22;36852;45.466;11.066;2022-12-24T10:45:48;11.20;99.90
23347;DHT22;36852;45.466;11.066;2022-12-24T10:48:23;11.20;99.90
23347;DHT22;36852;45.466;11.066;2022-12-24T10:51:02;11.20;99.90
23347;DHT22;36852;45.466;11.066;2022-12-24T10:56:30;11.30;99.90
23347;DHT22;36852;45.466;11.066;2022-12-24T10:58:58;11.40;99.90
23347;DHT22;36852;45.466;11.066;2022-12-24T11:01:45;11.40;99.90
23347;DHT22;36852;45.466;11.066;2022-12-24T11:04:19;11.50;99.90
23347;DHT22;36852;45.466;11.066;2022-12-24T11:06:53;11.60;99.90
23347;DHT22;36852;45.466;11.066;2022-12-24T11:09:23;11.70;99.90
23347;DHT22;36852;45.466;11.066;2022-12-24T11:11:51;11.70;99.90
23347;DHT22;36852;45.466;11.066;2022-12-24T11:14:23;11.80;99.90
23347;DHT22;36852;45.466;11.066;2022-12-24T11:16:54;11.90;99.90
23347;DHT22;36852;45.466;11.066;2022-12-24T11:19:31;11.90;99.90
23347;DHT22;36852;45.466;11.066;2022-12-24T11:22:04;12.00;99.90
23347;DHT22;36852;45.466;11.066;2022-12-24T11:24:34;12.00;99.90
23347;DHT22;36852;45.466;11.066;2022-12-24T11:27:28;12.00;99.90
23347;DHT22;36852;45.466;11.066;2022-12-24T11:32:48;12.00;99.90
23347;DHT22;36852;45.466;11.066;2022-12-24T11:35:19;12.00;99.90
23347;DHT22;36852;45.466;11.066;2022-12-24T11:40:40;12.00;99.90
23347;DHT22;36852;45.466;11.066;2022-12-24T11:43:17;11.90;99.90
23347;DHT22;36852;45.466;11.066;2022-12-24T11:45:54;11.90;99.90
23347;DHT22;36852;45.466;11.066;2022-12-24T11:48:31;11.90;99.90
23347;DHT22;36852;45.466;11.066;2022-12-24T11:51:03;11.90;99.90
23347;DHT22;36852;45.466;11.066;2022-12-24T11:53:37;12.00;99.90
23347;DHT22;36852;45.466;11.066;2022-12-24T11:56:12;12.00;99.90
23347;DHT22;36852;45.466;11.066;2022-12-24T11:58:50;12.10;99.90
23347;DHT22;36852;45.466;11.066;2022-12-24T12:01:32;12.20;99.90
23347;DHT22;36852;45.466;11.066;2022-12-24T12:04:11;12.30;99.90
23347;DHT22;36852;45.466;11.066;2022-12-24T12:09:17;12.60;99.90
23347;DHT22;36852;45.466;11.066;2022-12-24T12:11:48;12.60;99.90
23347;DHT22;36852;45.466;11.066;2022-12-24T12:14:28;12.70;99.90
23347;DHT22;36852;45.466;11.066;2022-12-24T12:17:04;12.70;99.90
23347;DHT22;36852;45.466;11.066;2022-12-24T12:25:15;12.70;99.90
23347;DHT22;36852;45.466;11.066;2022-12-24T12:27:42;12.80;99.90
23347;DHT22;36852;45.466;11.066;2022-12-24T12:30:15;12.90;99.90
23347;DHT22;36852;45.466;11.066;2022-12-24T12:35:34;13.20;99.90
23347;DHT22;36852;45.466;11.066;2022-12-24T12:38:08;13.50;99.90
23347;DHT22;36852;45.466;11.066;2022-12-24T12:58:07;13.30;99.90
23347;DHT22;36852;45.466;11.066;2022-12-24T13:12:05;13.10;99.90
23347;DHT22;36852;45.466;11.066;2022-12-24T13:15:01;13.00;99.90
23347;DHT22;36852;45.466;11.066;2022-12-24T13:23:11;12.70;99.90
23347;DHT22;36852;45.466;11.066;2022-12-24T13:25:42;12.70;99.90
23347;DHT22;36852;45.466;11.066;2022-12-24T13:28:32;12.60;99.90
23347;DHT22;36852;45.466;11.066;2022-12-24T13:39:17;12.40;99.90
23347;DHT22;36852;45.466;11.066;2022-12-24T13:41:51;12.30;99.90
23347;DHT22;36852;45.466;11.066;2022-12-24T13:44:23;12.30;99.90
23347;DHT22;36852;45.466;11.066;2022-12-24T13:49:45;12.30;99.90
23347;DHT22;36852;45.466;11.066;2022-12-24T13:52:22;12.20;99.90
23347;DHT22;36852;45.466;11.066;2022-12-24T13:57:59;12.10;99.90
23347;DHT22;36852;45.466;11.066;2022-12-24T14:03:17;12.00;99.90
23347;DHT22;36852;45.466;11.066;2022-12-24T14:05:49;12.00;99.90
23347;DHT22;36852;45.466;11.066;2022-12-24T14:08:32;12.00;99.90
23347;DHT22;36852;45.466;11.066;2022-12-24T14:11:12;12.00;99.90
23347;DHT22;36852;45.466;11.066;2022-12-24T14:19:02;12.00;99.90
23347;DHT22;36852;45.466;11.066;2022-12-24T14:21:36;12.00;99.90
23347;DHT22;36852;45.466;11.066;2022-12-24T14:24:20;12.00;99.90
23347;DHT22;36852;45.466;11.066;2022-12-24T14:26:56;12.00;99.90
23347;DHT22;36852;45.466;11.066;2022-12-24T14:29:26;12.00;99.90
23347;DHT22;36852;45.466;11.066;2022-12-24T14:31:56;12.00;99.90
23347;DHT22;36852;45.466;11.066;2022-12-24T14:34:25;11.90;99.90
23347;DHT22;36852;45.466;11.066;2022-12-24T14:36:54;11.80;99.90
23347;DHT22;36852;45.466;11.066;2022-12-24T14:39:29;11.80;99.90
23347;DHT22;36852;45.466;11.066;2022-12-24T14:42:03;11.80;99.90
23347;DHT22;36852;45.466;11.066;2022-12-24T14:44:48;11.80;99.90
23347;DHT22;36852;45.466;11.066;2022-12-24T14:47:33;11.80;99.90
23347;DHT22;36852;45.466;11.066;2022-12-24T14:53:22;11.70;99.90
23347;DHT22;36852;45.466;11.066;2022-12-24T14:55:48;11.70;99.90
23347;DHT22;36852;45.466;11.066;2022-12-24T14:58:30;11.70;99.90
23347;DHT22;36852;45.466;11.066;2022-12-24T15:01:01;11.70;99.90
23347;DHT22;36852;45.466;11.066;2022-12-24T15:03:31;11.70;99.90
23347;DHT22;36852;45.466;11.066;2022-12-24T15:06:05;11.70;99.90
23347;DHT22;36852;45.466;11.066;2022-12-24T15:08:46;11.70;99.90
23347;DHT22;36852;45.466;11.066;2022-12-24T15:11:17;11.70;99.90
23347;DHT22;36852;45.466;11.066;2022-12-24T15:13:51;11.70;99.90
23347;DHT22;36852;45.466;11.066;2022-12-24T15:16:30;11.70;99.90
23347;DHT22;36852;45.466;11.066;2022-12-24T15:19:00;11.70;99.90
23347;DHT22;36852;45.466;11.066;2022-12-24T15:21:31;11.70;99.90
23347;DHT22;36852;45.466;11.066;2022-12-24T15:23:59;11.70;99.90
23347;DHT22;36852;45.466;11.066;2022-12-24T15:26:33;11.70;99.90
23347;DHT22;36852;45.466;11.066;2022-12-24T15:29:12;11.70;99.90
23347;DHT22;36852;45.466;11.066;2022-12-24T15:31:32;11.70;99.90
23347;DHT22;36852;45.466;11.066;2022-12-24T15:34:00;11.70;99.90
23347;DHT22;36852;45.466;11.066;2022-12-24T15:36:33;11.70;99.90
23347;DHT22;36852;45.466;11.066;2022-12-24T15:39:04;11.60;99.90
23347;DHT22;36852;45.466;11.066;2022-12-24T15:41:38;11.60;99.90
23347;DHT22;36852;45.466;11.066;2022-12-24T15:44:11;11.60;99.90
23347;DHT22;36852;45.466;11.066;2022-12-24T15:46:40;11.50;99.90
23347;DHT22;36852;45.466;11.066;2022-12-24T15:49:12;11.50;99.90
23347;DHT22;36852;45.466;11.066;2022-12-24T15:51:41;11.50;99.90
23347;DHT22;36852;45.466;11.066;2022-12-24T15:54:11;11.40;99.90
23347;DHT22;36852;45.466;11.066;2022-12-24T15:56:43;11.40;99.90
23347;DHT22;36852;45.466;11.066;2022-12-24T15:59:26;11.40;99.90
23347;DHT22;36852;45.466;11.066;2022-12-24T16:01:53;11.40;99.90
23347;DHT22;36852;45.466;11.066;2022-12-24T16:04:27;11.50;99.90
23347;DHT22;36852;45.466;11.066;2022-12-24T16:07:02;11.40;99.90
23347;DHT22;36852;45.466;11.066;2022-12-24T16:09:41;11.40;99.90
23347;DHT22;36852;45.466;11.066;2022-12-24T16:12:18;11.40;99.90
23347;DHT22;36852;45.466;11.066;2022-12-24T16:14:52;11.30;99.90
23347;DHT22;36852;45.466;11.066;2022-12-24T16:17:22;11.30;99.90
23347;DHT22;36852;45.466;11.066;2022-12-24T16:19:53;11.30;99.90
23347;DHT22;36852;45.466;11.066;2022-12-24T16:22:23;11.30;99.90
23347;DHT22;36852;45.466;11.066;2022-12-24T16:27:49;11.20;99.90
23347;DHT22;36852;45.466;11.066;2022-12-24T16:30:19;11.10;99.90
23347;DHT22;36852;45.466;11.066;2022-12-24T16:32:47;11.10;99.90
23347;DHT22;36852;45.466;11.066;2022-12-24T16:37:52;11.10;99.90
23347;DHT22;36852;45.466;11.066;2022-12-24T16:40:21;11.10;99.90
23347;DHT22;36852;45.466;11.066;2022-12-24T16:42:50;11.00;99.90
23347;DHT22;36852;45.466;11.066;2022-12-24T16:45:36;11.00;99.90
23347;DHT22;36852;45.466;11.066;2022-12-24T16:48:05;11.00;99.90
23347;DHT22;36852;45.466;11.066;2022-12-24T16:50:34;10.90;99.90
23347;DHT22;36852;45.466;11.066;2022-12-24T16:53:03;10.80;99.90
23347;DHT22;36852;45.466;11.066;2022-12-24T16:55:30;10.80;99.90
23347;DHT22;36852;45.466;11.066;2022-12-24T16:57:59;10.70;99.90
23347;DHT22;36852;45.466;11.066;2022-12-24T17:00:30;10.70;99.90
23347;DHT22;36852;45.466;11.066;2022-12-24T17:03:02;10.60;99.90
23347;DHT22;36852;45.466;11.066;2022-12-24T17:05:30;10.60;99.90
23347;DHT22;36852;45.466;11.066;2022-12-24T17:07:59;10.60;99.90
23347;DHT22;36852;45.466;11.066;2022-12-24T17:10:28;10.50;99.90
23347;DHT22;36852;45.466;11.066;2022-12-24T17:12:56;10.50;99.90
23347;DHT22;36852;45.466;11.066;2022-12-24T17:15:25;10.40;99.90
23347;DHT22;36852;45.466;11.066;2022-12-24T17:17:53;10.40;99.90
23347;DHT22;36852;45.466;11.066;2022-12-24T17:20:21;10.40;99.90
23347;DHT22;36852;45.466;11.066;2022-12-24T17:22:52;10.30;99.90
23347;DHT22;36852;45.466;11.066;2022-12-24T17:25:20;10.30;99.90
23347;DHT22;36852;45.466;11.066;2022-12-24T17:27:48;10.30;99.90
23347;DHT22;36852;45.466;11.066;2022-12-24T17:30:16;10.20;99.90
23347;DHT22;36852;45.466;11.066;2022-12-24T17:32:45;10.20;99.90
23347;DHT22;36852;45.466;11.066;2022-12-24T17:35:14;10.20;99.90
23347;DHT22;36852;45.466;11.066;2022-12-24T17:37:42;10.20;99.90
23347;DHT22;36852;45.466;11.066;2022-12-24T17:40:11;10.20;99.90
23347;DHT22;36852;45.466;11.066;2022-12-24T17:42:39;10.20;99.90
23347;DHT22;36852;45.466;11.066;2022-12-24T17:45:07;10.20;99.90
23347;DHT22;36852;45.466;11.066;2022-12-24T17:47:35;10.10;99.90
23347;DHT22;36852;45.466;11.066;2022-12-24T17:50:08;10.10;99.90
23347;DHT22;36852;45.466;11.066;2022-12-24T17:52:36;10.10;99.90
23347;DHT22;36852;45.466;11.066;2022-12-24T17:55:06;10.10;99.90
23347;DHT22;36852;45.466;11.066;2022-12-24T17:57:35;10.10;99.90